sensor_id;sensor_type;location;lat;lon;timestamp;P1;durP1;ratioP1;P2;durP2;ratioP2
20653;SDS011;21083;50.898;4.902;2023-02-24T00:01:27;25.65;;;5.32;;
20653;SDS011;21083;50.898;4.902;2023-02-24T00:04:01;26.02;;;4.80;;
20653;SDS011;21083;50.898;4.902;2023-02-24T00:06:33;23.95;;;5.13;;
20653;SDS011;21083;50.898;4.902;2023-02-24T00:09:02;23.80;;;4.40;;
20653;SDS011;21083;50.898;4.902;2023-02-24T00:11:32;17.20;;;4.70;;
20653;SDS011;21083;50.898;4.902;2023-02-24T00:14:00;19.95;;;4.57;;
20653;SDS011;21083;50.898;4.902;2023-02-24T00:16:30;24.38;;;4.57;;
20653;SDS011;21083;50.898;4.902;2023-02-24T00:18:57;18.35;;;4.28;;
20653;SDS011;21083;50.898;4.902;2023-02-24T00:21:24;20.80;;;4.60;;
20653;SDS011;21083;50.898;4.902;2023-02-24T00:23:53;21.33;;;4.38;;
20653;SDS011;21083;50.898;4.902;2023-02-24T00:26:23;18.52;;;4.95;;
20653;SDS011;21083;50.898;4.902;2023-02-24T00:28:50;22.88;;;4.20;;
20653;SDS011;21083;50.898;4.902;2023-02-24T00:31:18;17.90;;;3.67;;
20653;SDS011;21083;50.898;4.902;2023-02-24T00:33:47;13.15;;;3.47;;
20653;SDS011;21083;50.898;4.902;2023-02-24T00:36:15;17.13;;;3.65;;
20653;SDS011;21083;50.898;4.902;2023-02-24T00:38:48;16.67;;;3.15;;
20653;SDS011;21083;50.898;4.902;2023-02-24T00:41:17;16.08;;;3.78;;
20653;SDS011;21083;50.898;4.902;2023-02-24T00:43:47;18.35;;;4.40;;
20653;SDS011;21083;50.898;4.902;2023-02-24T00:46:15;14.23;;;3.47;;
20653;SDS011;21083;50.898;4.902;2023-02-24T00:48:45;21.23;;;4.18;;
20653;SDS011;21083;50.898;4.902;2023-02-24T00:51:13;18.33;;;4.00;;
20653;SDS011;21083;50.898;4.902;2023-02-24T00:53:42;15.27;;;3.25;;
20653;SDS011;21083;50.898;4.902;2023-02-24T00:56:10;22.02;;;3.95;;
20653;SDS011;21083;50.898;4.902;2023-02-24T00:58:38;19.35;;;4.15;;
20653;SDS011;21083;50.898;4.902;2023-02-24T01:01:10;17.83;;;4.13;;
20653;SDS011;21083;50.898;4.902;2023-02-24T01:03:39;20.73;;;4.80;;
20653;SDS011;21083;50.898;4.902;2023-02-24T01:06:07;27.02;;;4.28;;
20653;SDS011;21083;50.898;4.902;2023-02-24T01:08:34;18.35;;;3.42;;
20653;SDS011;21083;50.898;4.902;2023-02-24T01:11:07;26.10;;;4.38;;
20653;SDS011;21083;50.898;4.902;2023-02-24T01:13:53;19.00;;;4.18;;
20653;SDS011;21083;50.898;4.902;2023-02-24T01:16:20;24.15;;;4.10;;
20653;SDS011;21083;50.898;4.902;2023-02-24T01:18:47;22.52;;;3.72;;
20653;SDS011;21083;50.898;4.902;2023-02-24T01:21:13;22.23;;;4.07;;
20653;SDS011;21083;50.898;4.902;2023-02-24T01:23:42;22.30;;;4.22;;
20653;SDS011;21083;50.898;4.902;2023-02-24T01:26:12;20.52;;;3.45;;
20653;SDS011;21083;50.898;4.902;2023-02-24T01:28:39;26.02;;;3.88;;
20653;SDS011;21083;50.898;4.902;2023-02-24T01:31:08;23.02;;;4.45;;
20653;SDS011;21083;50.898;4.902;2023-02-24T01:33:35;26.83;;;3.78;;
20653;SDS011;21083;50.898;4.902;2023-02-24T01:36:09;24.75;;;3.90;;
20653;SDS011;21083;50.898;4.902;2023-02-24T01:38:38;24.50;;;3.75;;
20653;SDS011;21083;50.898;4.902;2023-02-24T01:41:07;25.13;;;3.70;;
20653;SDS011;21083;50.898;4.902;2023-02-24T01:46:27;26.55;;;4.50;;
20653;SDS011;21083;50.898;4.902;2023-02-24T01:48:56;24.98;;;3.97;;
20653;SDS011;21083;50.898;4.902;2023-02-24T01:51:29;21.85;;;3.42;;
20653;SDS011;21083;50.898;4.902;2023-02-24T01:53:59;31.73;;;4.93;;
20653;SDS011;21083;50.898;4.902;2023-02-24T01:56:27;28.60;;;4.70;;
20653;SDS011;21083;50.898;4.902;2023-02-24T01:58:56;27.10;;;5.32;;
20653;SDS011;21083;50.898;4.902;2023-02-24T02:01:27;25.88;;;4.07;;
20653;SDS011;21083;50.898;4.902;2023-02-24T02:03:56;23.42;;;4.13;;
20653;SDS011;21083;50.898;4.902;2023-02-24T02:06:29;29.92;;;4.32;;
20653;SDS011;21083;50.898;4.902;2023-02-24T02:08:56;24.00;;;4.97;;
20653;SDS011;21083;50.898;4.902;2023-02-24T02:11:25;24.42;;;4.40;;
20653;SDS011;21083;50.898;4.902;2023-02-24T02:13:52;29.98;;;4.13;;
20653;SDS011;21083;50.898;4.902;2023-02-24T02:16:32;26.85;;;3.83;;
20653;SDS011;21083;50.898;4.902;2023-02-24T02:19:35;23.45;;;4.25;;
20653;SDS011;21083;50.898;4.902;2023-02-24T02:25:41;31.05;;;4.00;;
20653;SDS011;21083;50.898;4.902;2023-02-24T02:28:38;23.63;;;3.97;;
20653;SDS011;21083;50.898;4.902;2023-02-24T02:31:25;24.40;;;4.05;;
20653;SDS011;21083;50.898;4.902;2023-02-24T02:34:17;24.83;;;4.57;;
20653;SDS011;21083;50.898;4.902;2023-02-24T02:36:54;20.98;;;3.88;;
20653;SDS011;21083;50.898;4.902;2023-02-24T02:39:30;19.33;;;4.13;;
20653;SDS011;21083;50.898;4.902;2023-02-24T02:42:06;24.83;;;4.72;;
20653;SDS011;21083;50.898;4.902;2023-02-24T02:44:43;27.85;;;4.25;;
20653;SDS011;21083;50.898;4.902;2023-02-24T02:47:21;25.42;;;3.38;;
20653;SDS011;21083;50.898;4.902;2023-02-24T02:49:54;22.25;;;3.47;;
20653;SDS011;21083;50.898;4.902;2023-02-24T02:52:29;24.80;;;4.95;;
20653;SDS011;21083;50.898;4.902;2023-02-24T02:55:02;17.17;;;4.97;;
20653;SDS011;21083;50.898;4.902;2023-02-24T02:57:33;38.10;;;6.35;;
20653;SDS011;21083;50.898;4.902;2023-02-24T03:00:05;22.00;;;4.40;;
20653;SDS011;21083;50.898;4.902;2023-02-24T03:02:38;21.20;;;3.78;;
20653;SDS011;21083;50.898;4.902;2023-02-24T03:05:10;26.55;;;4.65;;
20653;SDS011;21083;50.898;4.902;2023-02-24T03:07:43;25.17;;;5.07;;
20653;SDS011;21083;50.898;4.902;2023-02-24T03:10:14;28.08;;;4.38;;
20653;SDS011;21083;50.898;4.902;2023-02-24T03:12:46;19.83;;;3.70;;
20653;SDS011;21083;50.898;4.902;2023-02-24T03:15:17;28.88;;;4.63;;
20653;SDS011;21083;50.898;4.902;2023-02-24T03:17:46;32.47;;;5.20;;
20653;SDS011;21083;50.898;4.902;2023-02-24T03:20:23;25.02;;;3.50;;
20653;SDS011;21083;50.898;4.902;2023-02-24T03:22:57;19.50;;;3.60;;
20653;SDS011;21083;50.898;4.902;2023-02-24T03:25:29;25.92;;;4.88;;
20653;SDS011;21083;50.898;4.902;2023-02-24T03:28:04;21.52;;;3.75;;
20653;SDS011;21083;50.898;4.902;2023-02-24T03:30:38;28.92;;;3.90;;
20653;SDS011;21083;50.898;4.902;2023-02-24T03:33:09;25.10;;;3.83;;
20653;SDS011;21083;50.898;4.902;2023-02-24T03:35:46;25.05;;;3.78;;
20653;SDS011;21083;50.898;4.902;2023-02-24T03:38:16;19.30;;;3.58;;
20653;SDS011;21083;50.898;4.902;2023-02-24T03:40:44;21.73;;;4.15;;
20653;SDS011;21083;50.898;4.902;2023-02-24T03:43:13;23.30;;;3.45;;
20653;SDS011;21083;50.898;4.902;2023-02-24T03:45:43;19.23;;;3.55;;
20653;SDS011;21083;50.898;4.902;2023-02-24T03:48:11;19.15;;;3.75;;
20653;SDS011;21083;50.898;4.902;2023-02-24T03:50:39;20.52;;;4.28;;
20653;SDS011;21083;50.898;4.902;2023-02-24T03:53:13;12.77;;;3.08;;
20653;SDS011;21083;50.898;4.902;2023-02-24T03:55:56;35.50;;;6.40;;
20653;SDS011;21083;50.898;4.902;2023-02-24T03:58:34;24.90;;;4.55;;
20653;SDS011;21083;50.898;4.902;2023-02-24T04:01:12;16.77;;;3.90;;
20653;SDS011;21083;50.898;4.902;2023-02-24T04:03:46;26.52;;;3.88;;
20653;SDS011;21083;50.898;4.902;2023-02-24T04:06:24;23.20;;;3.13;;
20653;SDS011;21083;50.898;4.902;2023-02-24T04:09:02;24.23;;;3.25;;
20653;SDS011;21083;50.898;4.902;2023-02-24T04:11:35;28.08;;;4.75;;
20653;SDS011;21083;50.898;4.902;2023-02-24T04:14:11;27.75;;;3.70;;
20653;SDS011;21083;50.898;4.902;2023-02-24T04:16:46;18.70;;;4.68;;
20653;SDS011;21083;50.898;4.902;2023-02-24T04:19:21;19.88;;;4.05;;
20653;SDS011;21083;50.898;4.902;2023-02-24T04:21:51;22.48;;;3.67;;
20653;SDS011;21083;50.898;4.902;2023-02-24T04:24:22;21.67;;;3.55;;
20653;SDS011;21083;50.898;4.902;2023-02-24T04:26:53;29.67;;;3.80;;
20653;SDS011;21083;50.898;4.902;2023-02-24T04:29:23;21.73;;;4.38;;
20653;SDS011;21083;50.898;4.902;2023-02-24T04:31:55;19.98;;;3.60;;
20653;SDS011;21083;50.898;4.902;2023-02-24T04:34:25;24.92;;;4.88;;
20653;SDS011;21083;50.898;4.902;2023-02-24T04:36:56;22.80;;;4.32;;
20653;SDS011;21083;50.898;4.902;2023-02-24T04:39:28;21.77;;;3.28;;
20653;SDS011;21083;50.898;4.902;2023-02-24T04:41:57;16.95;;;3.22;;
20653;SDS011;21083;50.898;4.902;2023-02-24T04:44:25;23.42;;;4.38;;
20653;SDS011;21083;50.898;4.902;2023-02-24T04:46:53;20.02;;;4.78;;
20653;SDS011;21083;50.898;4.902;2023-02-24T04:49:20;18.58;;;3.85;;
20653;SDS011;21083;50.898;4.902;2023-02-24T04:51:47;24.15;;;3.97;;
20653;SDS011;21083;50.898;4.902;2023-02-24T04:54:16;20.65;;;3.15;;
20653;SDS011;21083;50.898;4.902;2023-02-24T04:56:47;20.08;;;3.22;;
20653;SDS011;21083;50.898;4.902;2023-02-24T04:59:16;25.98;;;4.18;;
20653;SDS011;21083;50.898;4.902;2023-02-24T05:01:43;14.48;;;3.65;;
20653;SDS011;21083;50.898;4.902;2023-02-24T05:04:10;14.38;;;2.80;;
20653;SDS011;21083;50.898;4.902;2023-02-24T05:06:39;22.83;;;4.18;;
20653;SDS011;21083;50.898;4.902;2023-02-24T05:09:08;20.50;;;3.55;;
20653;SDS011;21083;50.898;4.902;2023-02-24T05:11:38;25.80;;;4.05;;
20653;SDS011;21083;50.898;4.902;2023-02-24T05:14:09;12.23;;;3.70;;
20653;SDS011;21083;50.898;4.902;2023-02-24T05:16:39;14.13;;;3.53;;
20653;SDS011;21083;50.898;4.902;2023-02-24T05:19:08;18.02;;;3.92;;
20653;SDS011;21083;50.898;4.902;2023-02-24T05:21:52;19.48;;;3.03;;
20653;SDS011;21083;50.898;4.902;2023-02-24T05:24:21;18.42;;;3.40;;
20653;SDS011;21083;50.898;4.902;2023-02-24T05:26:49;19.77;;;4.63;;
20653;SDS011;21083;50.898;4.902;2023-02-24T05:29:23;25.77;;;3.35;;
20653;SDS011;21083;50.898;4.902;2023-02-24T05:31:52;23.20;;;4.53;;
20653;SDS011;21083;50.898;4.902;2023-02-24T05:34:19;27.00;;;4.05;;
20653;SDS011;21083;50.898;4.902;2023-02-24T05:36:48;15.80;;;3.30;;
20653;SDS011;21083;50.898;4.902;2023-02-24T05:39:15;22.42;;;3.38;;
20653;SDS011;21083;50.898;4.902;2023-02-24T05:41:44;21.92;;;3.55;;
20653;SDS011;21083;50.898;4.902;2023-02-24T05:44:13;16.55;;;3.60;;
20653;SDS011;21083;50.898;4.902;2023-02-24T05:46:43;23.05;;;3.80;;
20653;SDS011;21083;50.898;4.902;2023-02-24T05:49:12;15.52;;;3.33;;
20653;SDS011;21083;50.898;4.902;2023-02-24T05:51:40;21.08;;;3.38;;
20653;SDS011;21083;50.898;4.902;2023-02-24T05:54:18;16.67;;;3.33;;
20653;SDS011;21083;50.898;4.902;2023-02-24T05:56:47;20.33;;;3.25;;
20653;SDS011;21083;50.898;4.902;2023-02-24T05:59:14;17.42;;;3.22;;
20653;SDS011;21083;50.898;4.902;2023-02-24T06:01:47;18.02;;;3.65;;
20653;SDS011;21083;50.898;4.902;2023-02-24T06:04:17;18.50;;;3.40;;
20653;SDS011;21083;50.898;4.902;2023-02-24T06:07:03;21.05;;;3.60;;
20653;SDS011;21083;50.898;4.902;2023-02-24T06:09:30;22.95;;;3.85;;
20653;SDS011;21083;50.898;4.902;2023-02-24T06:11:59;18.83;;;3.40;;
20653;SDS011;21083;50.898;4.902;2023-02-24T06:14:26;20.38;;;3.72;;
20653;SDS011;21083;50.898;4.902;2023-02-24T06:16:55;21.55;;;3.78;;
20653;SDS011;21083;50.898;4.902;2023-02-24T06:19:24;18.45;;;4.53;;
20653;SDS011;21083;50.898;4.902;2023-02-24T06:21:51;20.33;;;3.70;;
20653;SDS011;21083;50.898;4.902;2023-02-24T06:24:18;22.83;;;3.40;;
20653;SDS011;21083;50.898;4.902;2023-02-24T06:26:45;20.88;;;3.60;;
20653;SDS011;21083;50.898;4.902;2023-02-24T06:29:14;25.38;;;4.03;;
20653;SDS011;21083;50.898;4.902;2023-02-24T06:31:43;25.15;;;4.18;;
20653;SDS011;21083;50.898;4.902;2023-02-24T06:34:13;22.30;;;3.30;;
20653;SDS011;21083;50.898;4.902;2023-02-24T06:36:42;18.85;;;3.40;;
20653;SDS011;21083;50.898;4.902;2023-02-24T06:39:11;19.95;;;3.42;;
20653;SDS011;21083;50.898;4.902;2023-02-24T06:41:38;26.45;;;3.78;;
20653;SDS011;21083;50.898;4.902;2023-02-24T06:44:06;24.80;;;3.58;;
20653;SDS011;21083;50.898;4.902;2023-02-24T06:46:34;19.50;;;4.50;;
20653;SDS011;21083;50.898;4.902;2023-02-24T06:49:01;20.73;;;3.60;;
20653;SDS011;21083;50.898;4.902;2023-02-24T06:51:29;27.13;;;4.20;;
20653;SDS011;21083;50.898;4.902;2023-02-24T06:53:57;18.35;;;4.10;;
20653;SDS011;21083;50.898;4.902;2023-02-24T06:56:26;22.90;;;4.68;;
20653;SDS011;21083;50.898;4.902;2023-02-24T06:58:54;22.20;;;3.90;;
20653;SDS011;21083;50.898;4.902;2023-02-24T07:01:22;17.30;;;3.33;;
20653;SDS011;21083;50.898;4.902;2023-02-24T07:03:50;17.10;;;4.20;;
20653;SDS011;21083;50.898;4.902;2023-02-24T07:06:44;16.20;;;3.95;;
20653;SDS011;21083;50.898;4.902;2023-02-24T07:09:14;21.52;;;3.97;;
20653;SDS011;21083;50.898;4.902;2023-02-24T07:11:43;25.38;;;4.80;;
20653;SDS011;21083;50.898;4.902;2023-02-24T07:14:12;16.33;;;3.15;;
20653;SDS011;21083;50.898;4.902;2023-02-24T07:16:40;19.02;;;3.83;;
20653;SDS011;21083;50.898;4.902;2023-02-24T07:19:10;20.92;;;4.20;;
20653;SDS011;21083;50.898;4.902;2023-02-24T07:21:39;16.02;;;3.15;;
20653;SDS011;21083;50.898;4.902;2023-02-24T07:24:13;25.08;;;4.15;;
20653;SDS011;21083;50.898;4.902;2023-02-24T07:26:53;20.80;;;3.67;;
20653;SDS011;21083;50.898;4.902;2023-02-24T07:29:21;21.20;;;3.85;;
20653;SDS011;21083;50.898;4.902;2023-02-24T07:31:48;15.68;;;3.30;;
20653;SDS011;21083;50.898;4.902;2023-02-24T07:34:19;17.88;;;3.03;;
20653;SDS011;21083;50.898;4.902;2023-02-24T07:36:49;12.35;;;2.92;;
20653;SDS011;21083;50.898;4.902;2023-02-24T07:39:18;19.10;;;3.70;;
20653;SDS011;21083;50.898;4.902;2023-02-24T07:41:47;17.80;;;3.67;;
20653;SDS011;21083;50.898;4.902;2023-02-24T07:44:14;15.95;;;3.67;;
20653;SDS011;21083;50.898;4.902;2023-02-24T07:46:42;13.50;;;3.10;;
20653;SDS011;21083;50.898;4.902;2023-02-24T07:49:10;25.95;;;4.10;;
20653;SDS011;21083;50.898;4.902;2023-02-24T07:51:39;22.50;;;3.78;;
20653;SDS011;21083;50.898;4.902;2023-02-24T07:54:08;22.95;;;4.20;;
20653;SDS011;21083;50.898;4.902;2023-02-24T07:56:40;24.83;;;3.97;;
20653;SDS011;21083;50.898;4.902;2023-02-24T07:59:13;21.15;;;4.25;;
20653;SDS011;21083;50.898;4.902;2023-02-24T08:01:43;22.00;;;4.50;;
20653;SDS011;21083;50.898;4.902;2023-02-24T08:04:15;20.05;;;4.97;;
20653;SDS011;21083;50.898;4.902;2023-02-24T08:06:44;23.02;;;4.35;;
20653;SDS011;21083;50.898;4.902;2023-02-24T08:09:15;14.27;;;3.42;;
20653;SDS011;21083;50.898;4.902;2023-02-24T08:11:46;18.95;;;3.60;;
20653;SDS011;21083;50.898;4.902;2023-02-24T08:14:16;24.63;;;4.28;;
20653;SDS011;21083;50.898;4.902;2023-02-24T08:16:44;17.40;;;4.00;;
20653;SDS011;21083;50.898;4.902;2023-02-24T08:19:13;29.38;;;3.95;;
20653;SDS011;21083;50.898;4.902;2023-02-24T08:21:45;18.02;;;4.10;;
20653;SDS011;21083;50.898;4.902;2023-02-24T08:24:15;22.52;;;4.10;;
20653;SDS011;21083;50.898;4.902;2023-02-24T08:26:45;17.90;;;3.97;;
20653;SDS011;21083;50.898;4.902;2023-02-24T08:29:28;23.08;;;3.97;;
20653;SDS011;21083;50.898;4.902;2023-02-24T08:31:55;27.17;;;5.47;;
20653;SDS011;21083;50.898;4.902;2023-02-24T08:34:22;19.80;;;3.83;;
20653;SDS011;21083;50.898;4.902;2023-02-24T08:36:55;18.75;;;3.83;;
20653;SDS011;21083;50.898;4.902;2023-02-24T08:39:23;20.30;;;4.18;;
20653;SDS011;21083;50.898;4.902;2023-02-24T08:41:55;20.08;;;4.22;;
20653;SDS011;21083;50.898;4.902;2023-02-24T08:44:23;23.45;;;4.00;;
20653;SDS011;21083;50.898;4.902;2023-02-24T08:46:51;19.63;;;3.63;;
20653;SDS011;21083;50.898;4.902;2023-02-24T08:49:19;16.95;;;3.78;;
20653;SDS011;21083;50.898;4.902;2023-02-24T08:51:49;16.33;;;4.40;;
20653;SDS011;21083;50.898;4.902;2023-02-24T08:54:18;19.88;;;4.45;;
20653;SDS011;21083;50.898;4.902;2023-02-24T08:56:51;15.20;;;4.20;;
20653;SDS011;21083;50.898;4.902;2023-02-24T08:59:23;21.15;;;4.07;;
20653;SDS011;21083;50.898;4.902;2023-02-24T09:02:05;15.23;;;3.72;;
20653;SDS011;21083;50.898;4.902;2023-02-24T09:05:00;15.85;;;4.35;;
20653;SDS011;21083;50.898;4.902;2023-02-24T09:07:30;16.25;;;4.22;;
20653;SDS011;21083;50.898;4.902;2023-02-24T09:09:59;23.48;;;3.95;;
20653;SDS011;21083;50.898;4.902;2023-02-24T09:12:27;16.77;;;3.60;;
20653;SDS011;21083;50.898;4.902;2023-02-24T09:14:57;20.73;;;5.00;;
20653;SDS011;21083;50.898;4.902;2023-02-24T09:17:29;13.93;;;3.08;;
20653;SDS011;21083;50.898;4.902;2023-02-24T09:20:14;27.27;;;4.38;;
20653;SDS011;21083;50.898;4.902;2023-02-24T09:23:01;20.63;;;4.10;;
20653;SDS011;21083;50.898;4.902;2023-02-24T09:25:30;15.07;;;4.10;;
20653;SDS011;21083;50.898;4.902;2023-02-24T09:28:10;17.45;;;3.95;;
20653;SDS011;21083;50.898;4.902;2023-02-24T09:30:42;22.17;;;3.75;;
20653;SDS011;21083;50.898;4.902;2023-02-24T09:33:21;16.70;;;3.58;;
20653;SDS011;21083;50.898;4.902;2023-02-24T09:35:57;20.63;;;3.70;;
20653;SDS011;21083;50.898;4.902;2023-02-24T09:38:34;27.90;;;3.97;;
20653;SDS011;21083;50.898;4.902;2023-02-24T09:41:21;11.05;;;3.35;;
20653;SDS011;21083;50.898;4.902;2023-02-24T09:43:57;18.60;;;3.00;;
20653;SDS011;21083;50.898;4.902;2023-02-24T09:46:32;19.65;;;2.90;;
20653;SDS011;21083;50.898;4.902;2023-02-24T09:49:06;17.10;;;2.75;;
20653;SDS011;21083;50.898;4.902;2023-02-24T09:51:41;18.85;;;3.35;;
20653;SDS011;21083;50.898;4.902;2023-02-24T09:54:15;19.77;;;3.45;;
20653;SDS011;21083;50.898;4.902;2023-02-24T09:56:50;11.77;;;2.83;;
20653;SDS011;21083;50.898;4.902;2023-02-24T09:59:34;13.60;;;3.08;;
20653;SDS011;21083;50.898;4.902;2023-02-24T10:02:21;12.40;;;2.10;;
20653;SDS011;21083;50.898;4.902;2023-02-24T10:04:58;9.95;;;1.67;;
20653;SDS011;21083;50.898;4.902;2023-02-24T10:07:33;14.35;;;2.10;;
20653;SDS011;21083;50.898;4.902;2023-02-24T10:10:07;19.45;;;2.45;;
20653;SDS011;21083;50.898;4.902;2023-02-24T10:12:48;9.07;;;2.00;;
20653;SDS011;21083;50.898;4.902;2023-02-24T10:15:25;15.70;;;2.45;;
20653;SDS011;21083;50.898;4.902;2023-02-24T10:18:28;9.88;;;2.03;;
20653;SDS011;21083;50.898;4.902;2023-02-24T10:20:59;12.80;;;2.33;;
20653;SDS011;21083;50.898;4.902;2023-02-24T10:23:44;16.38;;;2.65;;
20653;SDS011;21083;50.898;4.902;2023-02-24T10:26:22;23.13;;;3.10;;
20653;SDS011;21083;50.898;4.902;2023-02-24T10:28:57;11.52;;;2.60;;
20653;SDS011;21083;50.898;4.902;2023-02-24T10:31:35;17.33;;;2.80;;
20653;SDS011;21083;50.898;4.902;2023-02-24T10:34:09;20.30;;;3.20;;
20653;SDS011;21083;50.898;4.902;2023-02-24T10:36:37;17.33;;;3.70;;
20653;SDS011;21083;50.898;4.902;2023-02-24T10:39:08;18.27;;;3.55;;
20653;SDS011;21083;50.898;4.902;2023-02-24T10:41:44;12.52;;;2.45;;
20653;SDS011;21083;50.898;4.902;2023-02-24T10:44:21;11.13;;;2.15;;
20653;SDS011;21083;50.898;4.902;2023-02-24T10:46:58;12.43;;;2.67;;
20653;SDS011;21083;50.898;4.902;2023-02-24T10:49:39;14.80;;;2.95;;
20653;SDS011;21083;50.898;4.902;2023-02-24T10:52:14;18.02;;;3.00;;
20653;SDS011;21083;50.898;4.902;2023-02-24T10:55:01;13.27;;;2.90;;
20653;SDS011;21083;50.898;4.902;2023-02-24T10:57:33;14.63;;;3.55;;
20653;SDS011;21083;50.898;4.902;2023-02-24T11:00:13;13.85;;;3.03;;
20653;SDS011;21083;50.898;4.902;2023-02-24T11:03:16;16.58;;;3.22;;
20653;SDS011;21083;50.898;4.902;2023-02-24T11:06:01;16.20;;;3.00;;
20653;SDS011;21083;50.898;4.902;2023-02-24T11:08:55;16.90;;;3.05;;
20653;SDS011;21083;50.898;4.902;2023-02-24T11:11:43;10.90;;;2.92;;
20653;SDS011;21083;50.898;4.902;2023-02-24T11:14:28;11.95;;;3.20;;
20653;SDS011;21083;50.898;4.902;2023-02-24T11:17:17;12.27;;;2.90;;
20653;SDS011;21083;50.898;4.902;2023-02-24T11:19:53;16.40;;;2.47;;
20653;SDS011;21083;50.898;4.902;2023-02-24T11:22:26;20.95;;;5.60;;
20653;SDS011;21083;50.898;4.902;2023-02-24T11:24:58;14.68;;;3.15;;
20653;SDS011;21083;50.898;4.902;2023-02-24T11:27:32;10.95;;;2.53;;
20653;SDS011;21083;50.898;4.902;2023-02-24T11:30:02;15.98;;;2.85;;
20653;SDS011;21083;50.898;4.902;2023-02-24T11:32:52;17.40;;;3.33;;
20653;SDS011;21083;50.898;4.902;2023-02-24T11:35:32;8.10;;;2.42;;
20653;SDS011;21083;50.898;4.902;2023-02-24T11:38:09;14.63;;;3.03;;
20653;SDS011;21083;50.898;4.902;2023-02-24T11:40:53;9.02;;;2.60;;
20653;SDS011;21083;50.898;4.902;2023-02-24T11:43:27;10.48;;;3.22;;
20653;SDS011;21083;50.898;4.902;2023-02-24T11:45:57;12.82;;;2.72;;
20653;SDS011;21083;50.898;4.902;2023-02-24T11:48:29;14.68;;;2.53;;
20653;SDS011;21083;50.898;4.902;2023-02-24T11:50:59;17.48;;;2.92;;
20653;SDS011;21083;50.898;4.902;2023-02-24T11:53:30;12.90;;;2.80;;
20653;SDS011;21083;50.898;4.902;2023-02-24T11:56:01;12.45;;;2.78;;
20653;SDS011;21083;50.898;4.902;2023-02-24T11:58:34;18.00;;;3.97;;
20653;SDS011;21083;50.898;4.902;2023-02-24T12:01:07;16.80;;;2.80;;
20653;SDS011;21083;50.898;4.902;2023-02-24T12:03:39;11.40;;;2.47;;
20653;SDS011;21083;50.898;4.902;2023-02-24T12:06:14;15.15;;;3.13;;
20653;SDS011;21083;50.898;4.902;2023-02-24T12:08:49;13.05;;;3.25;;
20653;SDS011;21083;50.898;4.902;2023-02-24T12:11:23;12.85;;;3.15;;
20653;SDS011;21083;50.898;4.902;2023-02-24T12:14:03;18.88;;;3.50;;
20653;SDS011;21083;50.898;4.902;2023-02-24T12:17:01;13.23;;;3.20;;
20653;SDS011;21083;50.898;4.902;2023-02-24T12:19:45;11.30;;;3.20;;
20653;SDS011;21083;50.898;4.902;2023-02-24T12:22:21;13.52;;;2.70;;
20653;SDS011;21083;50.898;4.902;2023-02-24T12:24:53;16.00;;;3.08;;
20653;SDS011;21083;50.898;4.902;2023-02-24T12:27:25;12.98;;;3.20;;
20653;SDS011;21083;50.898;4.902;2023-02-24T12:30:06;14.02;;;3.33;;
20653;SDS011;21083;50.898;4.902;2023-02-24T12:32:59;9.18;;;2.65;;
20653;SDS011;21083;50.898;4.902;2023-02-24T12:35:34;21.83;;;5.13;;
20653;SDS011;21083;50.898;4.902;2023-02-24T12:38:14;15.27;;;3.00;;
20653;SDS011;21083;50.898;4.902;2023-02-24T12:40:52;11.82;;;2.88;;
20653;SDS011;21083;50.898;4.902;2023-02-24T12:43:28;16.02;;;3.17;;
20653;SDS011;21083;50.898;4.902;2023-02-24T12:46:02;13.00;;;2.72;;
20653;SDS011;21083;50.898;4.902;2023-02-24T12:48:46;13.70;;;3.17;;
20653;SDS011;21083;50.898;4.902;2023-02-24T12:51:31;14.40;;;2.67;;
20653;SDS011;21083;50.898;4.902;2023-02-24T12:54:05;12.45;;;3.25;;
20653;SDS011;21083;50.898;4.902;2023-02-24T12:56:44;15.05;;;3.35;;
20653;SDS011;21083;50.898;4.902;2023-02-24T12:59:18;10.98;;;3.08;;
20653;SDS011;21083;50.898;4.902;2023-02-24T13:01:48;14.10;;;3.00;;
20653;SDS011;21083;50.898;4.902;2023-02-24T13:04:35;13.15;;;3.10;;
20653;SDS011;21083;50.898;4.902;2023-02-24T13:07:11;12.07;;;2.70;;
20653;SDS011;21083;50.898;4.902;2023-02-24T13:10:04;15.82;;;3.65;;
20653;SDS011;21083;50.898;4.902;2023-02-24T13:12:40;12.82;;;3.13;;
20653;SDS011;21083;50.898;4.902;2023-02-24T13:15:16;18.50;;;3.35;;
20653;SDS011;21083;50.898;4.902;2023-02-24T13:17:46;12.13;;;3.17;;
20653;SDS011;21083;50.898;4.902;2023-02-24T13:20:24;15.27;;;2.85;;
20653;SDS011;21083;50.898;4.902;2023-02-24T13:22:52;16.45;;;3.67;;
20653;SDS011;21083;50.898;4.902;2023-02-24T13:25:20;22.80;;;5.15;;
20653;SDS011;21083;50.898;4.902;2023-02-24T13:27:57;14.40;;;3.20;;
20653;SDS011;21083;50.898;4.902;2023-02-24T13:30:33;15.05;;;3.50;;
20653;SDS011;21083;50.898;4.902;2023-02-24T13:33:03;21.27;;;3.97;;
20653;SDS011;21083;50.898;4.902;2023-02-24T13:35:49;11.98;;;3.17;;
20653;SDS011;21083;50.898;4.902;2023-02-24T13:38:25;14.27;;;3.25;;
20653;SDS011;21083;50.898;4.902;2023-02-24T13:41:08;12.32;;;3.55;;
20653;SDS011;21083;50.898;4.902;2023-02-24T13:44:03;20.25;;;3.88;;
20653;SDS011;21083;50.898;4.902;2023-02-24T13:46:48;17.17;;;3.60;;
20653;SDS011;21083;50.898;4.902;2023-02-24T13:49:28;14.05;;;3.80;;
20653;SDS011;21083;50.898;4.902;2023-02-24T13:52:03;13.77;;;3.90;;
20653;SDS011;21083;50.898;4.902;2023-02-24T13:54:45;10.57;;;3.90;;
20653;SDS011;21083;50.898;4.902;2023-02-24T14:00:41;19.33;;;4.75;;
20653;SDS011;21083;50.898;4.902;2023-02-24T14:03:19;18.25;;;4.35;;
20653;SDS011;21083;50.898;4.902;2023-02-24T14:05:49;15.48;;;5.10;;
20653;SDS011;21083;50.898;4.902;2023-02-24T14:08:17;19.52;;;4.63;;
20653;SDS011;21083;50.898;4.902;2023-02-24T14:10:48;11.35;;;4.30;;
20653;SDS011;21083;50.898;4.902;2023-02-24T14:13:21;16.77;;;4.50;;
20653;SDS011;21083;50.898;4.902;2023-02-24T14:15:53;15.98;;;4.20;;
20653;SDS011;21083;50.898;4.902;2023-02-24T14:18:21;14.68;;;5.05;;
20653;SDS011;21083;50.898;4.902;2023-02-24T14:20:50;15.27;;;4.22;;
20653;SDS011;21083;50.898;4.902;2023-02-24T14:23:19;12.88;;;4.95;;
20653;SDS011;21083;50.898;4.902;2023-02-24T14:25:51;18.10;;;4.95;;
20653;SDS011;21083;50.898;4.902;2023-02-24T14:28:20;16.92;;;5.55;;
20653;SDS011;21083;50.898;4.902;2023-02-24T14:30:51;17.98;;;6.15;;
20653;SDS011;21083;50.898;4.902;2023-02-24T14:33:24;16.80;;;6.10;;
20653;SDS011;21083;50.898;4.902;2023-02-24T14:35:54;13.75;;;5.18;;
20653;SDS011;21083;50.898;4.902;2023-02-24T14:38:31;13.50;;;5.50;;
20653;SDS011;21083;50.898;4.902;2023-02-24T14:41:00;21.75;;;5.82;;
20653;SDS011;21083;50.898;4.902;2023-02-24T14:43:27;15.00;;;5.70;;
20653;SDS011;21083;50.898;4.902;2023-02-24T14:45:56;20.13;;;6.22;;
20653;SDS011;21083;50.898;4.902;2023-02-24T14:48:24;18.90;;;5.93;;
20653;SDS011;21083;50.898;4.902;2023-02-24T14:50:53;19.70;;;6.72;;
20653;SDS011;21083;50.898;4.902;2023-02-24T14:53:23;15.30;;;5.60;;
20653;SDS011;21083;50.898;4.902;2023-02-24T14:55:53;20.35;;;6.82;;
20653;SDS011;21083;50.898;4.902;2023-02-24T14:58:23;21.27;;;7.70;;
20653;SDS011;21083;50.898;4.902;2023-02-24T15:00:57;23.67;;;6.60;;
20653;SDS011;21083;50.898;4.902;2023-02-24T15:03:28;28.00;;;8.57;;
20653;SDS011;21083;50.898;4.902;2023-02-24T15:05:59;19.85;;;7.03;;
20653;SDS011;21083;50.898;4.902;2023-02-24T15:08:32;22.45;;;7.25;;
20653;SDS011;21083;50.898;4.902;2023-02-24T15:11:04;23.55;;;7.97;;
20653;SDS011;21083;50.898;4.902;2023-02-24T15:13:37;18.42;;;7.50;;
20653;SDS011;21083;50.898;4.902;2023-02-24T15:16:11;22.25;;;7.70;;
20653;SDS011;21083;50.898;4.902;2023-02-24T15:18:42;20.73;;;8.57;;
20653;SDS011;21083;50.898;4.902;2023-02-24T15:21:18;21.77;;;8.05;;